sensor_id;sensor_type;location;lat;lon;timestamp;P1;durP1;ratioP1;P2;durP2;ratioP2
10565;SDS011;5331;48.148;16.326;2023-05-10T00:00:23;5.68;;;4.38;;
10565;SDS011;5331;48.148;16.326;2023-05-10T00:02:50;4.40;;;4.00;;
10565;SDS011;5331;48.148;16.326;2023-05-10T00:05:17;4.53;;;4.13;;
10565;SDS011;5331;48.148;16.326;2023-05-10T00:07:46;4.82;;;4.38;;
10565;SDS011;5331;48.148;16.326;2023-05-10T00:10:13;4.43;;;4.03;;
10565;SDS011;5331;48.148;16.326;2023-05-10T00:12:40;6.28;;;4.30;;
10565;SDS011;5331;48.148;16.326;2023-05-10T00:15:07;4.38;;;3.97;;
10565;SDS011;5331;48.148;16.326;2023-05-10T00:17:35;4.43;;;4.03;;
10565;SDS011;5331;48.148;16.326;2023-05-10T00:20:02;4.18;;;3.88;;
10565;SDS011;5331;48.148;16.326;2023-05-10T00:22:30;4.78;;;4.22;;
10565;SDS011;5331;48.148;16.326;2023-05-10T00:24:58;4.38;;;3.97;;
10565;SDS011;5331;48.148;16.326;2023-05-10T00:27:25;4.57;;;4.18;;
10565;SDS011;5331;48.148;16.326;2023-05-10T00:29:52;6.15;;;4.50;;
10565;SDS011;5331;48.148;16.326;2023-05-10T00:32:19;5.55;;;4.40;;
10565;SDS011;5331;48.148;16.326;2023-05-10T00:34:46;4.30;;;3.90;;
10565;SDS011;5331;48.148;16.326;2023-05-10T00:37:12;4.28;;;3.88;;
10565;SDS011;5331;48.148;16.326;2023-05-10T00:39:39;4.60;;;4.20;;
10565;SDS011;5331;48.148;16.326;2023-05-10T00:42:08;4.43;;;4.03;;
10565;SDS011;5331;48.148;16.326;2023-05-10T00:44:35;5.60;;;4.25;;
10565;SDS011;5331;48.148;16.326;2023-05-10T00:47:02;4.30;;;4.00;;
10565;SDS011;5331;48.148;16.326;2023-05-10T00:49:29;4.45;;;4.05;;
10565;SDS011;5331;48.148;16.326;2023-05-10T00:51:56;5.07;;;4.43;;
10565;SDS011;5331;48.148;16.326;2023-05-10T00:54:23;5.57;;;4.07;;
10565;SDS011;5331;48.148;16.326;2023-05-10T00:56:50;4.65;;;4.25;;
10565;SDS011;5331;48.148;16.326;2023-05-10T00:59:19;4.20;;;3.80;;
10565;SDS011;5331;48.148;16.326;2023-05-10T01:01:46;4.50;;;3.97;;
10565;SDS011;5331;48.148;16.326;2023-05-10T01:04:14;4.60;;;4.20;;
10565;SDS011;5331;48.148;16.326;2023-05-10T01:06:41;4.10;;;3.80;;
10565;SDS011;5331;48.148;16.326;2023-05-10T01:09:08;4.32;;;3.88;;
10565;SDS011;5331;48.148;16.326;2023-05-10T01:11:36;4.47;;;4.07;;
10565;SDS011;5331;48.148;16.326;2023-05-10T01:14:06;3.90;;;3.60;;
10565;SDS011;5331;48.148;16.326;2023-05-10T01:16:35;4.40;;;4.00;;
10565;SDS011;5331;48.148;16.326;2023-05-10T01:19:03;4.95;;;4.43;;
10565;SDS011;5331;48.148;16.326;2023-05-10T01:21:33;5.13;;;4.10;;
10565;SDS011;5331;48.148;16.326;2023-05-10T01:27:13;4.90;;;3.75;;
10565;SDS011;5331;48.148;16.326;2023-05-10T01:33:02;4.32;;;3.92;;
10565;SDS011;5331;48.148;16.326;2023-05-10T01:35:37;4.85;;;4.45;;
10565;SDS011;5331;48.148;16.326;2023-05-10T01:38:16;4.57;;;3.67;;
10565;SDS011;5331;48.148;16.326;2023-05-10T01:40:48;4.50;;;4.10;;
10565;SDS011;5331;48.148;16.326;2023-05-10T01:43:28;6.65;;;4.18;;
10565;SDS011;5331;48.148;16.326;2023-05-10T01:46:03;7.30;;;4.47;;
10565;SDS011;5331;48.148;16.326;2023-05-10T01:48:37;4.80;;;4.35;;
10565;SDS011;5331;48.148;16.326;2023-05-10T01:51:12;5.10;;;4.35;;
10565;SDS011;5331;48.148;16.326;2023-05-10T01:53:41;4.80;;;4.35;;
10565;SDS011;5331;48.148;16.326;2023-05-10T01:56:10;5.00;;;4.50;;
10565;SDS011;5331;48.148;16.326;2023-05-10T01:58:38;4.82;;;4.30;;
10565;SDS011;5331;48.148;16.326;2023-05-10T02:01:07;4.70;;;4.30;;
10565;SDS011;5331;48.148;16.326;2023-05-10T02:03:35;4.88;;;4.47;;
10565;SDS011;5331;48.148;16.326;2023-05-10T02:06:06;4.93;;;4.43;;
10565;SDS011;5331;48.148;16.326;2023-05-10T02:08:35;5.03;;;4.60;;
10565;SDS011;5331;48.148;16.326;2023-05-10T02:11:02;4.75;;;4.35;;
10565;SDS011;5331;48.148;16.326;2023-05-10T02:13:31;6.20;;;4.35;;
10565;SDS011;5331;48.148;16.326;2023-05-10T02:16:02;6.10;;;4.60;;
10565;SDS011;5331;48.148;16.326;2023-05-10T02:18:31;5.65;;;4.72;;
10565;SDS011;5331;48.148;16.326;2023-05-10T02:21:01;4.95;;;4.50;;
10565;SDS011;5331;48.148;16.326;2023-05-10T02:23:29;4.80;;;4.40;;
10565;SDS011;5331;48.148;16.326;2023-05-10T02:25:56;5.00;;;4.60;;
10565;SDS011;5331;48.148;16.326;2023-05-10T02:28:24;5.40;;;4.40;;
10565;SDS011;5331;48.148;16.326;2023-05-10T02:30:53;5.25;;;4.80;;
10565;SDS011;5331;48.148;16.326;2023-05-10T02:33:21;6.13;;;4.38;;
10565;SDS011;5331;48.148;16.326;2023-05-10T02:35:48;6.78;;;5.03;;
10565;SDS011;5331;48.148;16.326;2023-05-10T02:38:18;5.07;;;4.25;;
10565;SDS011;5331;48.148;16.326;2023-05-10T02:40:47;4.93;;;4.35;;
10565;SDS011;5331;48.148;16.326;2023-05-10T02:43:14;5.85;;;4.88;;
10565;SDS011;5331;48.148;16.326;2023-05-10T02:45:43;5.15;;;4.65;;
10565;SDS011;5331;48.148;16.326;2023-05-10T02:48:13;5.05;;;4.65;;
10565;SDS011;5331;48.148;16.326;2023-05-10T02:50:40;4.97;;;4.57;;
10565;SDS011;5331;48.148;16.326;2023-05-10T02:53:10;6.18;;;4.53;;
10565;SDS011;5331;48.148;16.326;2023-05-10T02:55:42;5.50;;;5.00;;
10565;SDS011;5331;48.148;16.326;2023-05-10T02:58:13;5.10;;;4.60;;
10565;SDS011;5331;48.148;16.326;2023-05-10T03:00:40;5.35;;;4.75;;
10565;SDS011;5331;48.148;16.326;2023-05-10T03:03:07;5.95;;;4.78;;
10565;SDS011;5331;48.148;16.326;2023-05-10T03:05:34;5.18;;;4.60;;
10565;SDS011;5331;48.148;16.326;2023-05-10T03:08:01;5.45;;;4.50;;
10565;SDS011;5331;48.148;16.326;2023-05-10T03:10:30;5.95;;;4.80;;
10565;SDS011;5331;48.148;16.326;2023-05-10T03:13:05;5.20;;;4.70;;
10565;SDS011;5331;48.148;16.326;2023-05-10T03:15:42;4.97;;;4.47;;
10565;SDS011;5331;48.148;16.326;2023-05-10T03:18:15;5.25;;;4.65;;
10565;SDS011;5331;48.148;16.326;2023-05-10T03:20:47;5.45;;;4.38;;
10565;SDS011;5331;48.148;16.326;2023-05-10T03:23:20;4.72;;;4.30;;
10565;SDS011;5331;48.148;16.326;2023-05-10T03:25:50;5.28;;;4.75;;
10565;SDS011;5331;48.148;16.326;2023-05-10T03:28:20;5.18;;;4.53;;
10565;SDS011;5331;48.148;16.326;2023-05-10T03:30:47;5.07;;;4.57;;
10565;SDS011;5331;48.148;16.326;2023-05-10T03:33:15;6.53;;;5.90;;
10565;SDS011;5331;48.148;16.326;2023-05-10T03:35:42;5.20;;;4.70;;
10565;SDS011;5331;48.148;16.326;2023-05-10T03:38:10;5.85;;;4.80;;
10565;SDS011;5331;48.148;16.326;2023-05-10T03:40:37;7.63;;;4.93;;
10565;SDS011;5331;48.148;16.326;2023-05-10T03:43:05;5.25;;;4.75;;
10565;SDS011;5331;48.148;16.326;2023-05-10T03:45:33;5.55;;;5.05;;
10565;SDS011;5331;48.148;16.326;2023-05-10T03:48:00;6.03;;;5.38;;
10565;SDS011;5331;48.148;16.326;2023-05-10T03:50:27;5.72;;;4.70;;
10565;SDS011;5331;48.148;16.326;2023-05-10T03:52:54;6.43;;;5.30;;
10565;SDS011;5331;48.148;16.326;2023-05-10T03:55:22;5.68;;;5.05;;
10565;SDS011;5331;48.148;16.326;2023-05-10T03:57:49;6.03;;;5.00;;
10565;SDS011;5331;48.148;16.326;2023-05-10T04:00:17;5.70;;;4.97;;
10565;SDS011;5331;48.148;16.326;2023-05-10T04:02:45;7.18;;;5.40;;
10565;SDS011;5331;48.148;16.326;2023-05-10T04:05:12;6.28;;;5.25;;
10565;SDS011;5331;48.148;16.326;2023-05-10T04:07:39;5.97;;;5.30;;
10565;SDS011;5331;48.148;16.326;2023-05-10T04:10:07;6.35;;;4.95;;
10565;SDS011;5331;48.148;16.326;2023-05-10T04:12:34;7.18;;;5.55;;
10565;SDS011;5331;48.148;16.326;2023-05-10T04:15:01;6.25;;;5.55;;
10565;SDS011;5331;48.148;16.326;2023-05-10T04:17:28;6.20;;;5.07;;
10565;SDS011;5331;48.148;16.326;2023-05-10T04:19:57;8.15;;;5.35;;
10565;SDS011;5331;48.148;16.326;2023-05-10T04:22:24;6.32;;;5.50;;
10565;SDS011;5331;48.148;16.326;2023-05-10T04:24:52;5.78;;;5.28;;
10565;SDS011;5331;48.148;16.326;2023-05-10T04:27:19;6.28;;;5.68;;
10565;SDS011;5331;48.148;16.326;2023-05-10T04:29:46;5.93;;;5.40;;
10565;SDS011;5331;48.148;16.326;2023-05-10T04:32:13;5.90;;;5.25;;
10565;SDS011;5331;48.148;16.326;2023-05-10T04:34:41;6.88;;;5.65;;
10565;SDS011;5331;48.148;16.326;2023-05-10T04:37:09;6.13;;;5.28;;
10565;SDS011;5331;48.148;16.326;2023-05-10T04:39:36;5.65;;;5.15;;
10565;SDS011;5331;48.148;16.326;2023-05-10T04:42:04;6.78;;;5.20;;
10565;SDS011;5331;48.148;16.326;2023-05-10T04:44:31;5.95;;;5.35;;
10565;SDS011;5331;48.148;16.326;2023-05-10T04:46:58;6.25;;;5.15;;
10565;SDS011;5331;48.148;16.326;2023-05-10T04:49:25;6.25;;;5.38;;
10565;SDS011;5331;48.148;16.326;2023-05-10T04:51:52;5.78;;;5.13;;
10565;SDS011;5331;48.148;16.326;2023-05-10T04:54:20;5.32;;;4.88;;
10565;SDS011;5331;48.148;16.326;2023-05-10T04:56:47;5.65;;;4.80;;
10565;SDS011;5331;48.148;16.326;2023-05-10T04:59:14;5.72;;;5.20;;
10565;SDS011;5331;48.148;16.326;2023-05-10T05:01:41;5.35;;;4.85;;
10565;SDS011;5331;48.148;16.326;2023-05-10T05:04:08;5.45;;;4.95;;
10565;SDS011;5331;48.148;16.326;2023-05-10T05:06:35;5.82;;;5.22;;
10565;SDS011;5331;48.148;16.326;2023-05-10T05:09:02;5.90;;;5.15;;
10565;SDS011;5331;48.148;16.326;2023-05-10T05:11:30;5.57;;;4.68;;
10565;SDS011;5331;48.148;16.326;2023-05-10T05:13:57;5.75;;;5.18;;
10565;SDS011;5331;48.148;16.326;2023-05-10T05:16:25;5.72;;;5.22;;
10565;SDS011;5331;48.148;16.326;2023-05-10T05:18:53;6.25;;;5.20;;
10565;SDS011;5331;48.148;16.326;2023-05-10T05:21:20;6.25;;;5.15;;
10565;SDS011;5331;48.148;16.326;2023-05-10T05:23:47;5.85;;;5.25;;
10565;SDS011;5331;48.148;16.326;2023-05-10T05:26:14;5.30;;;4.70;;
10565;SDS011;5331;48.148;16.326;2023-05-10T05:28:43;5.63;;;5.03;;
10565;SDS011;5331;48.148;16.326;2023-05-10T05:31:09;5.50;;;5.00;;
10565;SDS011;5331;48.148;16.326;2023-05-10T05:33:36;6.20;;;5.00;;
10565;SDS011;5331;48.148;16.326;2023-05-10T05:36:04;6.55;;;4.80;;
10565;SDS011;5331;48.148;16.326;2023-05-10T05:38:32;5.97;;;4.97;;
10565;SDS011;5331;48.148;16.326;2023-05-10T05:40:59;5.38;;;4.78;;
10565;SDS011;5331;48.148;16.326;2023-05-10T05:43:26;6.43;;;5.10;;
10565;SDS011;5331;48.148;16.326;2023-05-10T05:45:54;6.65;;;5.47;;
10565;SDS011;5331;48.148;16.326;2023-05-10T05:48:22;6.30;;;5.10;;
10565;SDS011;5331;48.148;16.326;2023-05-10T05:50:49;5.10;;;4.57;;
10565;SDS011;5331;48.148;16.326;2023-05-10T05:53:19;4.93;;;4.47;;
10565;SDS011;5331;48.148;16.326;2023-05-10T05:55:52;5.68;;;4.68;;
10565;SDS011;5331;48.148;16.326;2023-05-10T05:58:20;6.10;;;4.95;;
10565;SDS011;5331;48.148;16.326;2023-05-10T06:00:47;5.25;;;4.30;;
10565;SDS011;5331;48.148;16.326;2023-05-10T06:03:15;6.70;;;4.60;;
10565;SDS011;5331;48.148;16.326;2023-05-10T06:05:42;6.78;;;4.18;;
10565;SDS011;5331;48.148;16.326;2023-05-10T06:08:09;6.63;;;4.18;;
10565;SDS011;5331;48.148;16.326;2023-05-10T06:10:36;5.57;;;4.10;;
10565;SDS011;5331;48.148;16.326;2023-05-10T06:13:04;4.53;;;3.80;;
10565;SDS011;5331;48.148;16.326;2023-05-10T06:15:30;4.80;;;3.72;;
10565;SDS011;5331;48.148;16.326;2023-05-10T06:17:58;5.55;;;3.80;;
10565;SDS011;5331;48.148;16.326;2023-05-10T06:20:26;4.20;;;3.80;;
10565;SDS011;5331;48.148;16.326;2023-05-10T06:22:53;3.67;;;3.40;;
10565;SDS011;5331;48.148;16.326;2023-05-10T06:25:20;5.72;;;4.15;;
10565;SDS011;5331;48.148;16.326;2023-05-10T06:27:47;5.13;;;3.58;;
10565;SDS011;5331;48.148;16.326;2023-05-10T06:30:14;5.38;;;4.15;;
10565;SDS011;5331;48.148;16.326;2023-05-10T06:32:41;6.47;;;4.30;;
10565;SDS011;5331;48.148;16.326;2023-05-10T06:35:10;4.57;;;4.15;;
10565;SDS011;5331;48.148;16.326;2023-05-10T06:37:38;5.93;;;3.70;;
10565;SDS011;5331;48.148;16.326;2023-05-10T06:40:06;4.07;;;3.67;;
10565;SDS011;5331;48.148;16.326;2023-05-10T06:42:34;6.28;;;3.90;;
10565;SDS011;5331;48.148;16.326;2023-05-10T06:45:01;6.10;;;4.72;;
10565;SDS011;5331;48.148;16.326;2023-05-10T06:47:28;4.25;;;3.58;;
10565;SDS011;5331;48.148;16.326;2023-05-10T06:49:55;4.43;;;4.05;;
10565;SDS011;5331;48.148;16.326;2023-05-10T06:52:22;6.80;;;4.57;;
10565;SDS011;5331;48.148;16.326;2023-05-10T06:54:50;4.15;;;3.70;;
10565;SDS011;5331;48.148;16.326;2023-05-10T06:57:17;4.75;;;4.25;;
10565;SDS011;5331;48.148;16.326;2023-05-10T06:59:45;5.13;;;4.63;;
10565;SDS011;5331;48.148;16.326;2023-05-10T07:02:12;5.43;;;4.28;;
10565;SDS011;5331;48.148;16.326;2023-05-10T07:04:39;5.93;;;4.22;;
10565;SDS011;5331;48.148;16.326;2023-05-10T07:07:06;4.70;;;4.15;;
10565;SDS011;5331;48.148;16.326;2023-05-10T07:09:33;6.32;;;4.50;;
10565;SDS011;5331;48.148;16.326;2023-05-10T07:12:02;6.18;;;4.50;;
10565;SDS011;5331;48.148;16.326;2023-05-10T07:14:29;5.07;;;4.57;;
10565;SDS011;5331;48.148;16.326;2023-05-10T07:16:56;5.20;;;4.40;;
10565;SDS011;5331;48.148;16.326;2023-05-10T07:19:23;5.00;;;3.80;;
10565;SDS011;5331;48.148;16.326;2023-05-10T07:21:49;4.80;;;3.78;;
10565;SDS011;5331;48.148;16.326;2023-05-10T07:24:16;7.18;;;4.18;;
10565;SDS011;5331;48.148;16.326;2023-05-10T07:26:43;5.93;;;4.45;;
10565;SDS011;5331;48.148;16.326;2023-05-10T07:29:11;4.50;;;4.10;;
10565;SDS011;5331;48.148;16.326;2023-05-10T07:31:38;4.88;;;4.47;;
10565;SDS011;5331;48.148;16.326;2023-05-10T07:34:06;4.93;;;4.40;;
10565;SDS011;5331;48.148;16.326;2023-05-10T07:36:33;5.03;;;4.28;;
10565;SDS011;5331;48.148;16.326;2023-05-10T07:39:00;5.60;;;4.38;;
10565;SDS011;5331;48.148;16.326;2023-05-10T07:41:27;5.95;;;4.32;;
10565;SDS011;5331;48.148;16.326;2023-05-10T07:43:55;4.93;;;4.43;;
10565;SDS011;5331;48.148;16.326;2023-05-10T07:46:23;4.65;;;4.22;;
10565;SDS011;5331;48.148;16.326;2023-05-10T07:48:50;4.72;;;4.32;;
10565;SDS011;5331;48.148;16.326;2023-05-10T07:51:17;4.68;;;4.28;;
10565;SDS011;5331;48.148;16.326;2023-05-10T07:53:44;5.53;;;4.35;;
10565;SDS011;5331;48.148;16.326;2023-05-10T07:56:21;4.93;;;4.35;;
10565;SDS011;5331;48.148;16.326;2023-05-10T07:58:52;5.03;;;3.97;;
10565;SDS011;5331;48.148;16.326;2023-05-10T08:01:20;5.78;;;4.18;;
10565;SDS011;5331;48.148;16.326;2023-05-10T08:03:48;6.47;;;4.35;;
10565;SDS011;5331;48.148;16.326;2023-05-10T08:06:16;5.55;;;4.50;;
10565;SDS011;5331;48.148;16.326;2023-05-10T08:08:44;4.80;;;4.40;;
10565;SDS011;5331;48.148;16.326;2023-05-10T08:11:15;5.05;;;4.50;;
10565;SDS011;5331;48.148;16.326;2023-05-10T08:13:42;5.82;;;4.45;;
10565;SDS011;5331;48.148;16.326;2023-05-10T08:16:09;5.43;;;4.50;;
10565;SDS011;5331;48.148;16.326;2023-05-10T08:18:36;5.50;;;4.78;;
10565;SDS011;5331;48.148;16.326;2023-05-10T08:21:05;5.18;;;4.68;;
10565;SDS011;5331;48.148;16.326;2023-05-10T08:23:32;5.30;;;4.40;;
10565;SDS011;5331;48.148;16.326;2023-05-10T08:25:59;4.90;;;4.50;;
10565;SDS011;5331;48.148;16.326;2023-05-10T08:28:26;6.88;;;4.35;;
10565;SDS011;5331;48.148;16.326;2023-05-10T08:30:53;5.72;;;4.43;;
10565;SDS011;5331;48.148;16.326;2023-05-10T08:33:23;6.65;;;4.57;;
10565;SDS011;5331;48.148;16.326;2023-05-10T08:35:50;5.13;;;4.47;;
10565;SDS011;5331;48.148;16.326;2023-05-10T08:38:18;6.50;;;4.65;;
10565;SDS011;5331;48.148;16.326;2023-05-10T08:40:45;4.53;;;3.90;;
10565;SDS011;5331;48.148;16.326;2023-05-10T08:43:16;4.63;;;4.22;;
10565;SDS011;5331;48.148;16.326;2023-05-10T08:45:43;6.60;;;4.10;;
10565;SDS011;5331;48.148;16.326;2023-05-10T08:48:11;5.00;;;4.40;;
10565;SDS011;5331;48.148;16.326;2023-05-10T08:50:40;6.40;;;4.85;;
10565;SDS011;5331;48.148;16.326;2023-05-10T08:53:09;5.30;;;4.80;;
10565;SDS011;5331;48.148;16.326;2023-05-10T08:55:39;5.43;;;4.90;;
10565;SDS011;5331;48.148;16.326;2023-05-10T08:58:07;5.13;;;4.20;;
10565;SDS011;5331;48.148;16.326;2023-05-10T09:00:35;4.70;;;4.30;;
10565;SDS011;5331;48.148;16.326;2023-05-10T09:03:03;5.78;;;4.05;;
10565;SDS011;5331;48.148;16.326;2023-05-10T09:05:31;4.18;;;3.75;;
10565;SDS011;5331;48.148;16.326;2023-05-10T09:07:58;4.38;;;3.92;;
10565;SDS011;5331;48.148;16.326;2023-05-10T09:10:25;3.92;;;3.55;;
10565;SDS011;5331;48.148;16.326;2023-05-10T09:12:55;3.85;;;3.50;;
10565;SDS011;5331;48.148;16.326;2023-05-10T09:15:23;4.28;;;3.30;;
10565;SDS011;5331;48.148;16.326;2023-05-10T09:17:50;3.63;;;3.38;;
10565;SDS011;5331;48.148;16.326;2023-05-10T09:20:17;3.38;;;3.08;;
10565;SDS011;5331;48.148;16.326;2023-05-10T09:22:45;3.85;;;3.20;;
10565;SDS011;5331;48.148;16.326;2023-05-10T09:25:14;3.25;;;3.05;;
10565;SDS011;5331;48.148;16.326;2023-05-10T09:27:44;3.30;;;3.10;;
10565;SDS011;5331;48.148;16.326;2023-05-10T09:30:16;3.47;;;2.95;;
10565;SDS011;5331;48.148;16.326;2023-05-10T09:32:49;2.75;;;2.55;;
10565;SDS011;5331;48.148;16.326;2023-05-10T09:35:17;2.92;;;2.72;;
10565;SDS011;5331;48.148;16.326;2023-05-10T09:37:46;5.28;;;2.88;;
10565;SDS011;5331;48.148;16.326;2023-05-10T09:40:14;2.63;;;2.42;;
10565;SDS011;5331;48.148;16.326;2023-05-10T09:42:43;2.55;;;2.35;;
10565;SDS011;5331;48.148;16.326;2023-05-10T09:45:19;2.20;;;2.10;;
10565;SDS011;5331;48.148;16.326;2023-05-10T09:47:46;2.10;;;2.00;;
10565;SDS011;5331;48.148;16.326;2023-05-10T09:50:13;3.30;;;2.13;;
10565;SDS011;5331;48.148;16.326;2023-05-10T09:52:48;2.55;;;2.00;;
10565;SDS011;5331;48.148;16.326;2023-05-10T09:55:17;2.47;;;2.10;;
10565;SDS011;5331;48.148;16.326;2023-05-10T09:57:45;2.20;;;2.10;;
10565;SDS011;5331;48.148;16.326;2023-05-10T10:00:16;4.80;;;2.40;;
10565;SDS011;5331;48.148;16.326;2023-05-10T10:02:47;3.33;;;1.95;;
10565;SDS011;5331;48.148;16.326;2023-05-10T10:05:20;2.53;;;2.00;;
10565;SDS011;5331;48.148;16.326;2023-05-10T10:07:47;4.15;;;2.00;;
10565;SDS011;5331;48.148;16.326;2023-05-10T10:10:15;2.20;;;2.10;;
10565;SDS011;5331;48.148;16.326;2023-05-10T10:12:42;2.05;;;1.90;;
10565;SDS011;5331;48.148;16.326;2023-05-10T10:15:10;2.38;;;2.05;;
10565;SDS011;5331;48.148;16.326;2023-05-10T10:17:37;3.35;;;2.13;;
10565;SDS011;5331;48.148;16.326;2023-05-10T10:20:07;2.38;;;1.70;;
10565;SDS011;5331;48.148;16.326;2023-05-10T10:22:35;2.10;;;1.92;;
10565;SDS011;5331;48.148;16.326;2023-05-10T10:25:04;2.70;;;1.70;;
10565;SDS011;5331;48.148;16.326;2023-05-10T10:27:34;3.50;;;2.00;;
10565;SDS011;5331;48.148;16.326;2023-05-10T10:30:11;2.10;;;2.00;;
10565;SDS011;5331;48.148;16.326;2023-05-10T10:32:51;2.63;;;1.80;;
10565;SDS011;5331;48.148;16.326;2023-05-10T10:35:29;2.97;;;2.10;;
10565;SDS011;5331;48.148;16.326;2023-05-10T10:37:56;2.00;;;1.90;;
10565;SDS011;5331;48.148;16.326;2023-05-10T10:40:24;1.92;;;1.83;;
10565;SDS011;5331;48.148;16.326;2023-05-10T10:42:52;2.20;;;2.00;;
10565;SDS011;5331;48.148;16.326;2023-05-10T10:45:20;2.20;;;2.10;;
10565;SDS011;5331;48.148;16.326;2023-05-10T10:47:48;1.92;;;1.83;;
10565;SDS011;5331;48.148;16.326;2023-05-10T10:50:16;2.03;;;1.92;;
10565;SDS011;5331;48.148;16.326;2023-05-10T10:52:45;2.60;;;2.03;;
10565;SDS011;5331;48.148;16.326;2023-05-10T10:55:15;2.45;;;2.08;;
10565;SDS011;5331;48.148;16.326;2023-05-10T10:57:48;2.22;;;1.98;;
10565;SDS011;5331;48.148;16.326;2023-05-10T11:03:03;2.17;;;2.00;;
10565;SDS011;5331;48.148;16.326;2023-05-10T11:05:35;2.20;;;2.10;;
10565;SDS011;5331;48.148;16.326;2023-05-10T11:08:09;2.25;;;2.05;;
10565;SDS011;5331;48.148;16.326;2023-05-10T11:10:39;3.58;;;2.30;;
10565;SDS011;5331;48.148;16.326;2023-05-10T11:13:07;3.55;;;2.20;;
10565;SDS011;5331;48.148;16.326;2023-05-10T11:15:36;2.92;;;2.22;;
10565;SDS011;5331;48.148;16.326;2023-05-10T11:20:52;2.15;;;2.05;;
10565;SDS011;5331;48.148;16.326;2023-05-10T11:23:24;2.10;;;2.00;;
10565;SDS011;5331;48.148;16.326;2023-05-10T11:25:56;2.03;;;1.92;;
10565;SDS011;5331;48.148;16.326;2023-05-10T11:28:23;2.10;;;1.90;;
10565;SDS011;5331;48.148;16.326;2023-05-10T11:30:51;2.72;;;2.10;;
10565;SDS011;5331;48.148;16.326;2023-05-10T11:33:19;3.17;;;1.90;;
10565;SDS011;5331;48.148;16.326;2023-05-10T11:35:46;1.90;;;1.80;;
10565;SDS011;5331;48.148;16.326;2023-05-10T11:38:13;2.30;;;2.05;;
10565;SDS011;5331;48.148;16.326;2023-05-10T11:40:41;2.20;;;2.10;;
10565;SDS011;5331;48.148;16.326;2023-05-10T11:43:09;3.40;;;1.92;;
10565;SDS011;5331;48.148;16.326;2023-05-10T11:45:37;2.00;;;1.90;;
10565;SDS011;5331;48.148;16.326;2023-05-10T11:48:04;2.50;;;1.95;;
10565;SDS011;5331;48.148;16.326;2023-05-10T11:50:31;1.95;;;1.85;;
10565;SDS011;5331;48.148;16.326;2023-05-10T11:52:58;2.25;;;1.80;;
10565;SDS011;5331;48.148;16.326;2023-05-10T11:55:25;3.08;;;1.95;;
10565;SDS011;5331;48.148;16.326;2023-05-10T11:57:54;2.00;;;1.90;;
10565;SDS011;5331;48.148;16.326;2023-05-10T12:00:21;2.50;;;1.88;;
10565;SDS011;5331;48.148;16.326;2023-05-10T12:02:48;1.75;;;1.70;;
10565;SDS011;5331;48.148;16.326;2023-05-10T12:05:15;3.08;;;1.80;;
10565;SDS011;5331;48.148;16.326;2023-05-10T12:07:43;2.03;;;1.92;;
10565;SDS011;5331;48.148;16.326;2023-05-10T12:10:11;2.10;;;2.00;;
10565;SDS011;5331;48.148;16.326;2023-05-10T12:12:39;2.97;;;2.25;;
10565;SDS011;5331;48.148;16.326;2023-05-10T12:15:16;1.90;;;1.80;;
10565;SDS011;5331;48.148;16.326;2023-05-10T12:17:45;1.90;;;1.80;;
10565;SDS011;5331;48.148;16.326;2023-05-10T12:20:13;2.65;;;1.90;;
10565;SDS011;5331;48.148;16.326;2023-05-10T12:22:43;2.17;;;2.08;;
10565;SDS011;5331;48.148;16.326;2023-05-10T12:25:15;2.20;;;1.85;;
10565;SDS011;5331;48.148;16.326;2023-05-10T12:27:47;2.00;;;1.90;;
10565;SDS011;5331;48.148;16.326;2023-05-10T12:30:23;1.90;;;1.80;;
10565;SDS011;5331;48.148;16.326;2023-05-10T12:32:51;1.92;;;1.83;;
10565;SDS011;5331;48.148;16.326;2023-05-10T12:35:19;1.90;;;1.80;;
10565;SDS011;5331;48.148;16.326;2023-05-10T12:37:49;2.00;;;1.90;;
10565;SDS011;5331;48.148;16.326;2023-05-10T12:40:17;3.85;;;2.05;;
10565;SDS011;5331;48.148;16.326;2023-05-10T12:42:44;2.63;;;2.30;;
10565;SDS011;5331;48.148;16.326;2023-05-10T12:45:11;2.10;;;1.98;;
10565;SDS011;5331;48.148;16.326;2023-05-10T12:47:39;2.28;;;2.15;;
10565;SDS011;5331;48.148;16.326;2023-05-10T12:50:07;2.20;;;2.10;;
10565;SDS011;5331;48.148;16.326;2023-05-10T12:52:34;2.20;;;2.10;;
10565;SDS011;5331;48.148;16.326;2023-05-10T12:55:01;3.00;;;2.00;;
10565;SDS011;5331;48.148;16.326;2023-05-10T12:57:28;1.90;;;1.80;;
10565;SDS011;5331;48.148;16.326;2023-05-10T12:59:55;2.38;;;2.17;;
10565;SDS011;5331;48.148;16.326;2023-05-10T13:02:22;2.17;;;2.00;;
10565;SDS011;5331;48.148;16.326;2023-05-10T13:04:52;2.17;;;2.08;;
10565;SDS011;5331;48.148;16.326;2023-05-10T13:07:19;2.25;;;1.98;;
10565;SDS011;5331;48.148;16.326;2023-05-10T13:09:46;2.30;;;2.10;;
10565;SDS011;5331;48.148;16.326;2023-05-10T13:12:13;2.63;;;2.28;;
10565;SDS011;5331;48.148;16.326;2023-05-10T13:14:40;2.80;;;2.53;;
10565;SDS011;5331;48.148;16.326;2023-05-10T13:17:07;6.13;;;2.35;;
10565;SDS011;5331;48.148;16.326;2023-05-10T13:19:37;2.70;;;2.50;;
10565;SDS011;5331;48.148;16.326;2023-05-10T13:22:06;2.45;;;2.20;;
10565;SDS011;5331;48.148;16.326;2023-05-10T13:24:33;3.05;;;2.30;;
10565;SDS011;5331;48.148;16.326;2023-05-10T13:27:00;2.58;;;2.38;;
10565;SDS011;5331;48.148;16.326;2023-05-10T13:29:27;3.15;;;2.55;;
10565;SDS011;5331;48.148;16.326;2023-05-10T13:31:54;3.38;;;2.38;;
10565;SDS011;5331;48.148;16.326;2023-05-10T13:34:21;2.40;;;2.30;;
10565;SDS011;5331;48.148;16.326;2023-05-10T13:36:49;2.45;;;2.35;;
10565;SDS011;5331;48.148;16.326;2023-05-10T13:39:18;2.40;;;2.30;;
10565;SDS011;5331;48.148;16.326;2023-05-10T13:41:46;2.40;;;2.30;;
10565;SDS011;5331;48.148;16.326;2023-05-10T13:44:13;3.13;;;2.92;;
10565;SDS011;5331;48.148;16.326;2023-05-10T13:46:41;2.72;;;2.53;;
10565;SDS011;5331;48.148;16.326;2023-05-10T13:49:08;2.53;;;2.42;;
10565;SDS011;5331;48.148;16.326;2023-05-10T13:51:35;2.50;;;2.30;;
10565;SDS011;5331;48.148;16.326;2023-05-10T13:54:02;2.45;;;2.35;;
10565;SDS011;5331;48.148;16.326;2023-05-10T13:56:31;2.60;;;2.40;;
10565;SDS011;5331;48.148;16.326;2023-05-10T13:58:58;2.38;;;2.22;;
10565;SDS011;5331;48.148;16.326;2023-05-10T14:01:26;8.43;;;2.60;;
10565;SDS011;5331;48.148;16.326;2023-05-10T14:03:54;2.70;;;2.50;;
10565;SDS011;5331;48.148;16.326;2023-05-10T14:06:21;2.63;;;2.50;;
10565;SDS011;5331;48.148;16.326;2023-05-10T14:08:48;2.65;;;2.45;;
10565;SDS011;5331;48.148;16.326;2023-05-10T14:11:15;2.90;;;2.58;;
10565;SDS011;5331;48.148;16.326;2023-05-10T14:13:44;2.50;;;2.30;;
10565;SDS011;5331;48.148;16.326;2023-05-10T14:16:11;2.60;;;2.38;;
10565;SDS011;5331;48.148;16.326;2023-05-10T14:18:39;2.55;;;2.20;;
10565;SDS011;5331;48.148;16.326;2023-05-10T14:21:08;2.60;;;2.40;;
10565;SDS011;5331;48.148;16.326;2023-05-10T14:23:35;3.25;;;2.53;;
10565;SDS011;5331;48.148;16.326;2023-05-10T14:26:01;2.58;;;2.38;;
10565;SDS011;5331;48.148;16.326;2023-05-10T14:28:29;2.65;;;2.40;;
10565;SDS011;5331;48.148;16.326;2023-05-10T14:30:57;3.13;;;2.53;;
10565;SDS011;5331;48.148;16.326;2023-05-10T14:33:24;3.58;;;3.28;;
10565;SDS011;5331;48.148;16.326;2023-05-10T14:35:51;2.80;;;2.60;;
10565;SDS011;5331;48.148;16.326;2023-05-10T14:38:18;2.70;;;2.50;;
10565;SDS011;5331;48.148;16.326;2023-05-10T14:40:45;2.78;;;2.58;;
10565;SDS011;5331;48.148;16.326;2023-05-10T14:43:12;3.20;;;3.00;;
10565;SDS011;5331;48.148;16.326;2023-05-10T14:45:39;4.25;;;3.85;;
10565;SDS011;5331;48.148;16.326;2023-05-10T14:48:07;2.50;;;2.30;;
10565;SDS011;5331;48.148;16.326;2023-05-10T14:50:37;2.30;;;2.10;;
10565;SDS011;5331;48.148;16.326;2023-05-10T14:53:04;2.50;;;2.30;;
10565;SDS011;5331;48.148;16.326;2023-05-10T14:55:32;4.10;;;2.22;;
10565;SDS011;5331;48.148;16.326;2023-05-10T14:57:59;2.58;;;2.40;;
10565;SDS011;5331;48.148;16.326;2023-05-10T15:00:27;2.50;;;2.28;;
10565;SDS011;5331;48.148;16.326;2023-05-10T15:02:56;3.55;;;2.10;;
10565;SDS011;5331;48.148;16.326;2023-05-10T15:05:24;2.60;;;2.30;;